Latest Weather Observations for Laverton

IDV60801

Issued at 6:05 pm EST Thursday 2 October 2014 (issued every 30 minutes, with the page automatically refreshed every 10 minutes)

About weather observations | Map of weather stations | Latest weather observations for VIC | Other Formats
Station Details ID: 087031 Name: LAVERTON RAAF Lat: -37.86 Lon: 144.76 Height: 20.1 m
Data from the previous 72 hours. | See also: Recent months at Laverton
Date/Time
EST
Temp
°C
App
Temp
°C
Dew
Point
Rel
Hum
%
Delta-T
°C
Wind Press
QNH
hPa
Press
MSL
hPa
Rain
since 9 am
mm
Dir
 
Spd
km/h
Gust
km/h
Spd
kts
Gust
kts
02/06:00pm 14.2 11.5 10.2 77 2.1 S 15 20 8 11 1023.5 1023.5 0.0
02/05:30pm 14.4 11.4 10.6 78 2.0 SSE 17 24 9 13 1023.3 1023.3 0.0
02/05:00pm 14.5 12.2 10.3 76 2.2 SSE 13 20 7 11 1023.1 1023.1 0.0
02/04:30pm 15.1 12.0 10.3 73 2.5 SSE 17 22 9 12 1022.9 1022.9 0.0
02/04:00pm 16.9 11.3 7.3 53 4.8 SW 26 32 14 17 1022.8 1022.8 0.0
02/03:30pm 17.2 12.1 7.5 53 4.9 WSW 24 35 13 19 1022.7 1022.7 0.0
02/03:00pm 17.0 11.5 7.6 54 4.7 WSW 26 37 14 20 1022.8 1022.8 0.0
02/02:30pm 17.4 12.3 7.7 53 4.9 SW 24 32 13 17 1023.0 1023.0 0.0
02/02:00pm 16.7 11.3 7.9 56 4.4 WSW 26 37 14 20 1023.3 1023.3 0.0
02/01:30pm 16.9 12.1 7.5 54 4.7 WSW 22 35 12 19 1023.5 1023.5 0.0
02/01:00pm 16.2 10.7 7.7 57 4.2 WSW 26 33 14 18 1023.8 1023.8 0.0
02/12:30pm 15.9 9.7 7.7 58 4.1 WSW 30 44 16 24 1024.0 1024.0 0.0
02/12:00pm 15.7 10.6 7.5 58 4.1 W 24 35 13 19 1024.2 1024.2 0.0
02/11:30am 15.4 10.6 7.4 59 4.0 WSW 22 32 12 17 1024.3 1024.3 0.0
02/11:00am 14.3 8.6 6.9 61 3.6 WSW 26 37 14 20 1024.5 1024.5 0.0
02/10:30am 14.3 9.4 7.1 62 3.5 WSW 22 35 12 19 1024.5 1024.5 0.0
02/10:00am 14.0 8.4 7.1 63 3.3 WSW 26 41 14 22 1024.8 1024.8 0.0
02/09:30am 13.8 10.1 7.8 67 2.9 WSW 17 26 9 14 1024.8 1024.8 0.0
02/09:00am 13.1 7.5 7.3 68 2.8 WSW 26 37 14 20 1024.8 1024.8 0.0
02/08:30am 13.1 10.3 8.4 73 2.3 WNW 13 17 7 9 1024.4 1024.4 0.0
02/08:00am 12.1 8.9 8.6 79 1.7 WNW 15 19 8 10 1024.3 1024.3 0.0
02/07:30am 11.4 8.5 8.3 81 1.5 W 13 19 7 10 1024.3 1024.3 0.0
02/07:00am 11.0 7.4 8.4 84 1.3 W 17 19 9 10 1024.2 1024.2 0.0
02/06:30am 10.5 7.7 8.4 87 1.0 WNW 13 19 7 10 1024.0 1024.0 0.0
02/06:00am 9.8 7.7 8.1 89 0.8 WNW 9 11 5 6 1023.9 1023.9 0.0
02/05:30am 9.6 7.8 7.9 89 0.8 NNW 7 11 4 6 1023.6 1023.6 0.0
02/05:13am 9.5 7.2 7.6 88 0.9 WNW 9 11 5 6 1023.8 1023.8 0.0
02/05:00am 9.7 7.0 7.5 86 1.0 W 11 17 6 9 1023.9 1023.9 0.0
02/04:47am 9.9 7.5 7.2 83 1.3 WNW 9 13 5 7 1023.9 1023.9 0.0
02/04:30am 10.0 7.2 7.1 82 1.4 WNW 11 13 6 7 1023.7 1023.7 0.0
02/04:00am 10.2 5.7 7.1 81 1.5 W 20 26 11 14 1023.7 1023.7 0.0
02/03:30am 9.3 6.8 6.6 83 1.3 NW 9 9 5 5 1023.7 1023.7 0.0
02/03:00am 8.9 5.9 6.2 83 1.2 WNW 11 17 6 9 1023.9 1023.9 0.0
02/02:30am 8.3 4.9 5.9 85 1.1 NW 13 17 7 9 1024.1 1024.1 0.0
02/02:00am 7.3 4.1 5.1 86 1.0 NNW 11 15 6 8 1024.5 1024.5 0.0
02/01:30am 7.6 4.0 5.1 84 1.1 WNW 13 15 7 8 1024.8 1024.8 0.0
02/01:00am 8.5 5.1 5.8 83 1.2 WNW 13 15 7 8 1024.9 1024.9 0.0
02/12:30am 8.5 4.8 6.1 85 1.1 WNW 15 17 8 9 1025.0 1025.0 0.0
02/12:00am 6.5 2.5 4.7 88 0.8 NW 15 17 8 9 1025.3 1025.3 0.0
 
Date/Time
EST
Temp
°C
App
Temp
°C
Dew
Point
Rel
Hum
%
Delta-T
°C
Wind Press
QNH
hPa
Press
MSL
hPa
Rain
since 9 am
mm
Dir
 
Spd
km/h
Gust
km/h
Spd
kts
Gust
kts
01/11:30pm 6.2 2.8 4.0 86 0.9 NW 11 15 6 8 1025.4 1025.4 0.0
01/11:00pm 6.3 2.5 4.1 86 0.9 NW 13 15 7 8 1025.5 1025.5 0.0
01/10:30pm 6.5 2.7 3.8 83 1.1 NW 13 17 7 9 1025.7 1025.7 0.0
01/10:00pm 6.3 2.8 3.6 83 1.1 NW 11 13 6 7 1025.8 1025.8 0.0
01/09:30pm 7.3 4.3 3.9 79 1.5 NW 9 11 5 6 1025.9 1025.9 0.0
01/09:00pm 9.5 6.1 4.1 69 2.4 W 11 17 6 9 1025.7 1025.7 0.0
01/08:30pm 10.5 7.3 4.9 68 2.5 W 11 15 6 8 1025.6 1025.6 0.0
01/08:00pm 11.0 7.4 4.9 66 2.8 WSW 13 17 7 9 1025.3 1025.3 0.0
01/07:30pm 11.1 7.0 4.6 64 2.9 SW 15 24 8 13 1025.0 1025.0 0.0
01/07:00pm 12.0 7.2 4.5 60 3.4 SW 19 28 10 15 1024.7 1024.7 0.0
01/06:30pm 12.7 7.6 4.2 56 3.9 WSW 20 28 11 15 1024.4 1024.4 0.0
01/06:00pm 13.0 9.6 6.1 63 3.3 SSW 13 17 7 9 1024.3 1024.3 0.0
01/05:30pm 13.3 10.0 6.4 63 3.3 S 13 19 7 10 1024.2 1024.2 0.0
01/05:00pm 13.2 9.8 6.1 62 3.4 S 13 17 7 9 1024.1 1024.1 0.0
01/04:30pm 13.5 10.1 6.1 61 3.5 SSW 13 17 7 9 1024.0 1024.0 0.0
01/04:00pm 13.1 8.4 6.0 62 3.3 S 20 28 11 15 1023.9 1023.9 0.0
01/03:30pm 14.3 10.4 5.4 55 4.2 SSW 15 24 8 13 1023.7 1023.7 0.0
01/03:00pm 13.4 8.8 6.3 62 3.4 SW 20 28 11 15 1023.9 1023.9 0.0
01/02:30pm 14.0 9.4 6.6 61 3.6 SSW 20 30 11 16 1024.0 1024.0 0.0
01/02:00pm 13.3 9.6 6.4 63 3.3 SW 15 28 8 15 1023.8 1023.8 0.0
01/01:30pm 12.5 9.1 7.6 72 2.4 WSW 15 30 8 16 1024.0 1024.0 0.0
01/01:00pm 14.4 9.1 5.0 53 4.4 S 22 28 12 15 1024.2 1024.2 0.0
01/12:30pm 14.6 9.0 5.4 54 4.3 S 24 37 13 20 1024.2 1024.2 0.0
01/12:00pm 13.9 7.4 2.5 46 5.0 SW 26 37 14 20 1024.0 1024.0 0.0
01/11:30am 14.5 9.2 3.0 46 5.2 SW 20 35 11 19 1024.0 1024.0 0.0
01/11:00am 14.5 8.8 3.0 46 5.1 WSW 22 32 12 17 1024.1 1024.1 0.0
01/10:30am 13.9 8.1 4.2 52 4.4 SW 24 33 13 18 1024.0 1024.0 0.0
01/10:00am 12.9 6.2 3.8 54 4.1 WSW 28 44 15 24 1023.9 1023.9 0.0
01/09:30am 13.5 7.9 5.2 57 3.9 SW 24 37 13 20 1023.7 1023.7 0.0
01/09:00am 12.0 5.8 4.5 60 3.4 W 26 39 14 21 1023.2 1023.2 1.6
01/08:30am 10.9 5.6 4.8 66 2.8 W 22 32 12 17 1022.7 1022.7 1.6
01/08:00am 9.9 4.5 4.7 70 2.3 W 22 32 12 17 1022.2 1022.2 1.6
01/07:30am 8.3 2.4 4.1 75 1.8 W 24 30 13 16 1021.7 1021.7 1.6
01/07:00am 6.5 1.5 3.8 83 1.1 WNW 19 24 10 13 1021.2 1021.2 1.6
01/06:30am 5.3 1.0 3.3 87 0.8 WNW 15 20 8 11 1020.9 1020.9 1.6
01/06:00am 4.6 -0.2 2.5 86 0.8 WNW 17 20 9 11 1020.2 1020.2 1.6
01/05:30am 5.7 1.0 2.9 82 1.2 W 17 20 9 11 1019.7 1019.7 1.6
01/05:00am 6.2 0.6 3.2 81 1.2 W 22 32 12 17 1019.3 1019.3 1.6
01/04:30am 6.5 1.2 3.1 79 1.4 W 20 26 11 14 1018.9 1018.9 1.6
01/04:00am 6.7 1.4 3.0 77 1.5 W 20 28 11 15 1018.4 1018.4 1.6
01/03:30am 7.2 1.5 2.9 74 1.8 W 22 33 12 18 1018.2 1018.2 1.6
01/03:00am 7.1 1.8 3.0 75 1.7 W 20 30 11 16 1017.6 1017.6 1.6
01/02:30am 7.3 1.6 3.0 74 1.8 W 22 32 12 17 1017.4 1017.4 1.6
01/02:00am 7.3 1.6 2.8 73 1.9 W 22 35 12 19 1017.2 1017.2 1.6
01/01:30am 7.3 2.0 3.0 74 1.8 W 20 37 11 20 1017.0 1017.0 1.6
01/01:00am 7.3 2.1 3.4 76 1.7 W 20 28 11 15 1016.7 1016.7 1.6
01/12:30am 7.4 2.2 3.8 78 1.5 WNW 20 30 11 16 1016.2 1016.2 1.6
01/12:00am 7.1 2.5 3.5 78 1.5 WNW 17 24 9 13 1015.8 1015.8 1.6
 
Date/Time
EST
Temp
°C
App
Temp
°C
Dew
Point
Rel
Hum
%
Delta-T
°C
Wind Press
QNH
hPa
Press
MSL
hPa
Rain
since 9 am
mm
Dir
 
Spd
km/h
Gust
km/h
Spd
kts
Gust
kts
30/11:30pm 7.3 2.1 3.4 76 1.7 WNW 20 28 11 15 1015.5 1015.5 1.6
30/11:00pm 8.0 1.2 3.3 72 2.0 W 28 37 15 20 1015.2 1015.2 1.6
30/10:30pm 8.7 2.6 2.5 65 2.6 W 24 35 13 19 1015.0 1015.0 1.6
30/10:00pm 9.0 2.9 2.6 64 2.7 W 24 33 13 18 1014.2 1014.2 1.6
30/09:30pm 7.8 2.8 3.8 76 1.7 WNW 19 24 10 13 1013.8 1013.8 1.6
30/09:00pm 8.9 4.4 4.1 72 2.1 WNW 17 24 9 13 1013.5 1013.5 1.6
30/08:30pm 9.4 5.2 3.8 68 2.4 W 15 20 8 11 1013.3 1013.3 1.6
30/08:00pm 9.6 4.5 4.2 69 2.4 W 20 28 11 15 1013.1 1013.1 1.6
30/07:30pm 9.8 4.0 4.6 70 2.3 W 24 37 13 20 1012.4 1012.4 1.6
30/07:00pm 10.2 4.4 4.6 68 2.5 W 24 35 13 19 1011.4 1011.5 1.6
30/06:30pm 10.7 4.8 5.9 72 2.2 WSW 26 37 14 20 1010.7 1010.8 1.6
30/06:00pm 11.1 3.5 6.0 71 2.4 W 35 48 19 26 1010.5 1010.6 1.6
30/05:30pm 11.6 4.5 5.7 67 2.7 WNW 32 43 17 23 1009.7 1009.8 1.6
30/05:04pm 11.1 4.0 5.4 68 2.6 W 32 50 17 27 1009.5 1009.6 1.6
30/05:00pm 11.1 3.8 5.4 68 2.6 W 33 50 18 27 1009.5 1009.6 1.6
30/04:30pm 10.5 2.5 5.5 71 2.3 W 37 57 20 31 1009.0 1009.1 1.6
30/04:17pm 9.7 2.2 6.2 79 1.6 W 35 48 19 26 1009.0 1009.1 1.6
30/04:04pm 9.8 -1.7 6.2 78 1.7 W 56 82 30 44 1009.2 1009.3 1.4
30/04:00pm 10.2 -1.4 6.5 78 1.7 WSW 57 82 31 44 1009.0 1009.1 1.4
30/03:38pm 11.4 1.6 8.8 84 1.3 WSW 50 78 27 42 1007.0 1007.0 0.8
30/03:33pm 12.0 3.1 9.2 83 1.4 WSW 46 78 25 42 1006.9 1006.9 0.6
30/03:32pm 12.1 3.7 9.5 84 1.3 WSW 44 78 24 42 1006.9 1006.9 0.6
30/03:30pm 12.3 3.9 9.7 84 1.3 WSW 44 61 24 33 1006.7 1006.7 0.6
30/03:00pm 13.5 3.4 10.5 82 1.6 W 54 87 29 47 1005.0 1005.0 0.2
30/02:54pm 13.8 3.5 9.5 75 2.2 W 54 87 29 47 1004.5 1004.5 0.0
30/02:45pm 18.6 7.2 7.7 49 5.6 W 57 83 31 45 1004.0 1004.0 0.0
30/02:30pm 22.5 9.6 4.1 30 9.0 NW 61 87 33 47 1002.1 1002.1 0.0
30/02:00pm 23.5 11.6 4.5 29 9.5 NW 56 83 30 45 1002.0 1002.0 0.0
30/01:56pm 23.8 12.0 4.7 29 9.5 NW 56 83 30 45 1001.9 1001.9 0.0
30/01:43pm 23.6 13.6 4.5 29 9.5 NW 46 65 25 35 1002.1 1002.1 0.0
30/01:30pm 23.5 13.8 5.9 32 8.9 NW 46 63 25 34 1002.5 1002.5 0.0
30/01:00pm 22.5 14.2 6.3 35 8.3 NNW 39 57 21 31 1003.3 1003.3 0.0
30/12:31pm 21.5 12.8 6.2 37 7.7 NW 41 59 22 32 1004.2 1004.2 0.0
30/12:30pm 21.6 12.9 5.9 36 7.9 NW 41 56 22 30 1004.4 1004.4 0.0
30/12:00pm 21.6 12.3 5.1 34 8.2 NW 43 61 23 33 1004.8 1004.8 0.0
30/11:32am 22.8 15.5 7.0 36 8.2 NNW 35 59 19 32 1005.1 1005.1 0.0
30/11:30am 22.0 14.7 7.4 39 7.6 NNW 35 50 19 27 1005.3 1005.3 0.0
30/11:01am 21.5 14.4 6.6 38 7.6 NNW 33 54 18 29 1005.9 1005.9 0.0
30/11:00am 21.8 14.9 7.2 39 7.5 NNW 33 44 18 24 1006.1 1006.1 0.0
30/10:30am 21.2 14.3 7.1 40 7.2 N 33 50 18 27 1006.4 1006.4 0.0
30/10:00am 21.0 14.1 7.3 41 7.1 NNW 33 46 18 25 1007.1 1007.1 0.0
30/09:30am 20.0 13.2 7.1 43 6.6 NNW 32 43 17 23 1007.5 1007.5 0.0
30/09:00am 18.9 12.3 7.7 48 5.7 N 32 46 17 25 1008.1 1008.2 0.0
30/08:30am 18.0 13.0 8.0 52 5.1 N 24 37 13 20 1008.9 1009.0 0.0
30/08:00am 16.8 12.2 8.0 56 4.5 N 22 35 12 19 1009.1 1009.2 0.0
30/07:30am 14.9 10.8 7.9 63 3.5 N 19 28 10 15 1009.6 1009.7 0.0
30/07:00am 13.4 9.7 7.8 69 2.8 N 17 24 9 13 1010.1 1010.2 0.0
30/06:30am 12.5 9.2 8.0 74 2.2 NNW 15 20 8 11 1009.9 1010.0 0.0
30/06:00am 9.1 5.8 6.4 83 1.3 NW 13 15 7 8 1009.5 1009.6 0.0
30/05:30am 10.3 7.1 7.0 80 1.6 NNW 13 17 7 9 1009.3 1009.4 0.0
30/05:00am 10.9 8.0 6.6 75 2.0 NNW 11 15 6 8 1009.1 1009.2 0.0
30/04:30am 11.4 8.9 8.1 80 1.6 N 11 13 6 7 1008.9 1009.0 0.0
30/04:00am 9.8 7.7 6.7 81 1.5 NNW 7 9 4 5 1009.1 1009.2 0.0
30/03:30am 11.2 8.8 7.1 76 2.0 N 9 11 5 6 1009.4 1009.5 0.0
30/03:00am 10.7 8.3 6.8 77 1.8 N 9 11 5 6 1009.7 1009.8 0.0
30/02:30am 10.8 9.7 7.1 78 1.8 NW 2 7 1 4 1009.8 1009.9 0.0
30/02:00am 12.4 11.8 7.5 72 2.4 CALM 0 0 0 0 1010.3 1010.4 0.0
30/01:30am 13.8 11.6 7.8 67 3.0 W 9 11 5 6 1010.9 1011.0 0.0
30/01:00am 14.3 11.7 7.8 65 3.2 NW 11 13 6 7 1010.9 1011.0 0.0
30/12:30am 15.1 11.9 8.3 64 3.4 SW 15 22 8 12 1011.0 1011.1 0.0
30/12:00am 15.8 12.3 8.8 63 3.6 N 17 24 9 13 1011.0 1011.1 0.0
 
Date/Time
EST
Temp
°C
App
Temp
°C
Dew
Point
Rel
Hum
%
Delta-T
°C
Wind Press
QNH
hPa
Press
MSL
hPa
Rain
since 9 am
mm
Dir
 
Spd
km/h
Gust
km/h
Spd
kts
Gust
kts
29/11:30pm 15.7 12.6 8.9 64 3.5 N 15 20 8 11 1011.3 1011.4 0.0
29/11:00pm 15.5 12.1 9.0 65 3.3 N 17 22 9 12 1011.7 1011.7 0.0
29/10:30pm 15.6 12.1 8.8 64 3.5 N 17 22 9 12 1011.9 1011.9 0.0
29/10:00pm 16.0 12.0 9.0 63 3.6 N 20 28 11 15 1011.8 1011.8 0.0
29/09:30pm 16.2 12.2 8.4 60 4.0 N 19 24 10 13 1011.8 1011.8 0.0
29/09:00pm 16.5 12.4 8.0 57 4.3 N 19 24 10 13 1011.7 1011.7 0.0
29/08:30pm 16.9 13.5 7.5 54 4.7 N 15 20 8 11 1011.8 1011.8 0.0
29/08:00pm 17.3 13.8 7.1 51 5.1 N 15 19 8 10 1011.4 1011.5 0.0
29/07:30pm 17.6 14.7 6.5 48 5.5 N 11 13 6 7 1011.3 1011.4 0.0
29/07:00pm 18.2 14.9 6.4 46 5.9 N 13 17 7 9 1011.0 1011.1 0.0
29/06:30pm 18.7 15.4 6.5 45 6.1 NNW 13 17 7 9 1011.0 1011.1 0.0

Other Formats:

Comma delimited format used in spreadsheet applications
http://www.bom.gov.au/fwo/IDV60801/IDV60801.94865.axf

JavaScript Object Notation format (JSON) in row-major order
http://www.bom.gov.au/fwo/IDV60801/IDV60801.94865.json